sensor_id;sensor_type;location;lat;lon;timestamp;pressure;altitude;pressure_sealevel;temperature;humidity
32251;BME280;41295;48.518;9.206;2023-01-28T00:00:31;97690.34;;;1.03;72.95
32251;BME280;41295;48.518;9.206;2023-01-28T00:02:34;97687.78;;;1.03;72.14
32251;BME280;41295;48.518;9.206;2023-01-28T00:04:37;97692.03;;;1.04;73.04
32251;BME280;41295;48.518;9.206;2023-01-28T00:06:40;97680.91;;;1.04;72.79
32251;BME280;41295;48.518;9.206;2023-01-28T00:08:44;97681.78;;;1.04;72.76
32251;BME280;41295;48.518;9.206;2023-01-28T00:10:47;97682.66;;;1.06;72.63
32251;BME280;41295;48.518;9.206;2023-01-28T00:12:50;97688.59;;;1.04;72.34
32251;BME280;41295;48.518;9.206;2023-01-28T00:14:52;97685.19;;;1.03;72.67
32251;BME280;41295;48.518;9.206;2023-01-28T00:16:55;97680.91;;;1.02;72.98
32251;BME280;41295;48.518;9.206;2023-01-28T00:18:57;97680.91;;;1.04;72.57
32251;BME280;41295;48.518;9.206;2023-01-28T00:21:02;97679.22;;;1.06;72.71
32251;BME280;41295;48.518;9.206;2023-01-28T00:23:04;97676.63;;;1.03;72.59
32251;BME280;41295;48.518;9.206;2023-01-28T00:25:09;97674.06;;;1.03;72.52
32251;BME280;41295;48.518;9.206;2023-01-28T00:27:11;97676.63;;;1.06;72.98
32251;BME280;41295;48.518;9.206;2023-01-28T00:29:14;97667.22;;;1.03;72.40
32251;BME280;41295;48.518;9.206;2023-01-28T00:31:18;97672.34;;;1.03;72.54
32251;BME280;41295;48.518;9.206;2023-01-28T00:33:22;97670.66;;;1.05;72.58
32251;BME280;41295;48.518;9.206;2023-01-28T00:35:25;97668.94;;;1.06;72.43
32251;BME280;41295;48.518;9.206;2023-01-28T00:37:28;97665.53;;;1.07;72.46
32251;BME280;41295;48.518;9.206;2023-01-28T00:39:31;97673.25;;;1.07;72.63
32251;BME280;41295;48.518;9.206;2023-01-28T00:41:35;97669.81;;;1.06;72.38
32251;BME280;41295;48.518;9.206;2023-01-28T00:43:38;97668.06;;;1.04;73.08
32251;BME280;41295;48.518;9.206;2023-01-28T00:45:41;97667.22;;;1.05;72.63
32251;BME280;41295;48.518;9.206;2023-01-28T00:47:44;97664.66;;;1.03;73.11
32251;BME280;41295;48.518;9.206;2023-01-28T00:49:46;97674.94;;;1.03;72.94
32251;BME280;41295;48.518;9.206;2023-01-28T00:51:49;97664.66;;;1.02;72.80
32251;BME280;41295;48.518;9.206;2023-01-28T00:53:51;97665.50;;;1.04;72.53
32251;BME280;41295;48.518;9.206;2023-01-28T00:55:54;97661.22;;;1.03;72.54
32251;BME280;41295;48.518;9.206;2023-01-28T00:57:58;97665.50;;;1.04;72.84
32251;BME280;41295;48.518;9.206;2023-01-28T01:00:00;97663.78;;;1.06;72.54
32251;BME280;41295;48.518;9.206;2023-01-28T01:02:03;97659.53;;;1.05;72.11
32251;BME280;41295;48.518;9.206;2023-01-28T01:04:13;97665.50;;;1.04;72.67
32251;BME280;41295;48.518;9.206;2023-01-28T01:06:28;97668.06;;;1.04;72.01
32251;BME280;41295;48.518;9.206;2023-01-28T01:08:31;97670.66;;;1.05;71.95
32251;BME280;41295;48.518;9.206;2023-01-28T01:10:36;97669.81;;;1.05;72.47
32251;BME280;41295;48.518;9.206;2023-01-28T01:12:39;97674.06;;;1.04;72.24
32251;BME280;41295;48.518;9.206;2023-01-28T01:14:43;97675.78;;;1.04;72.17
32251;BME280;41295;48.518;9.206;2023-01-28T01:16:46;97668.94;;;1.06;72.28
32251;BME280;41295;48.518;9.206;2023-01-28T01:18:50;97668.09;;;1.07;72.52
32251;BME280;41295;48.518;9.206;2023-01-28T01:20:53;97679.19;;;1.04;72.55
32251;BME280;41295;48.518;9.206;2023-01-28T01:22:59;97678.34;;;1.04;72.23
32251;BME280;41295;48.518;9.206;2023-01-28T01:25:02;97666.38;;;1.07;72.13
32251;BME280;41295;48.518;9.206;2023-01-28T01:27:05;97669.81;;;1.06;72.33
32251;BME280;41295;48.518;9.206;2023-01-28T01:29:07;97670.69;;;1.07;72.19
32251;BME280;41295;48.518;9.206;2023-01-28T01:31:13;97664.66;;;1.06;71.87
32251;BME280;41295;48.518;9.206;2023-01-28T01:33:16;97664.69;;;1.08;71.74
32251;BME280;41295;48.518;9.206;2023-01-28T01:35:19;97680.03;;;1.00;71.92
32251;BME280;41295;48.518;9.206;2023-01-28T01:37:21;97676.63;;;1.04;72.15
32251;BME280;41295;48.518;9.206;2023-01-28T01:39:24;97674.94;;;1.05;72.19
32251;BME280;41295;48.518;9.206;2023-01-28T01:41:28;97677.53;;;1.11;71.41
32251;BME280;41295;48.518;9.206;2023-01-28T01:43:45;97675.81;;;1.05;71.55
32251;BME280;41295;48.518;9.206;2023-01-28T01:45:52;97680.94;;;1.05;72.00
32251;BME280;41295;48.518;9.206;2023-01-28T01:48:01;97687.78;;;1.06;71.50
32251;BME280;41295;48.518;9.206;2023-01-28T01:50:11;97683.50;;;1.07;72.22
32251;BME280;41295;48.518;9.206;2023-01-28T01:52:19;97685.22;;;1.05;72.09
32251;BME280;41295;48.518;9.206;2023-01-28T01:54:25;97690.34;;;1.06;71.65
32251;BME280;41295;48.518;9.206;2023-01-28T01:56:34;97692.03;;;1.03;71.88
32251;BME280;41295;48.518;9.206;2023-01-28T01:58:41;97699.75;;;1.04;71.74
32251;BME280;41295;48.518;9.206;2023-01-28T02:00:45;97692.03;;;1.04;71.76
32251;BME280;41295;48.518;9.206;2023-01-28T02:02:49;97691.19;;;1.04;72.07
32251;BME280;41295;48.518;9.206;2023-01-28T02:04:54;97697.19;;;1.07;71.33
32251;BME280;41295;48.518;9.206;2023-01-28T02:06:58;97704.06;;;1.05;72.17
32251;BME280;41295;48.518;9.206;2023-01-28T02:09:02;97695.50;;;1.10;71.58
32251;BME280;41295;48.518;9.206;2023-01-28T02:11:06;97705.78;;;1.08;71.79
32251;BME280;41295;48.518;9.206;2023-01-28T02:13:09;97698.06;;;1.08;71.74
32251;BME280;41295;48.518;9.206;2023-01-28T02:15:15;97694.63;;;1.07;71.33
32251;BME280;41295;48.518;9.206;2023-01-28T02:17:19;97699.81;;;1.14;70.33
32251;BME280;41295;48.518;9.206;2023-01-28T02:19:25;97698.06;;;1.10;71.15
32251;BME280;41295;48.518;9.206;2023-01-28T02:24:23;97701.50;;;1.08;70.81
32251;BME280;41295;48.518;9.206;2023-01-28T02:26:45;97701.50;;;1.10;71.37
32251;BME280;41295;48.518;9.206;2023-01-28T02:28:54;97695.53;;;1.13;71.20
32251;BME280;41295;48.518;9.206;2023-01-28T02:31:04;97702.41;;;1.14;71.48
32251;BME280;41295;48.518;9.206;2023-01-28T02:33:14;97702.38;;;1.12;71.10
32251;BME280;41295;48.518;9.206;2023-01-28T02:35:25;97704.97;;;1.12;71.49
32251;BME280;41295;48.518;9.206;2023-01-28T02:37:35;97704.09;;;1.12;71.47
32251;BME280;41295;48.518;9.206;2023-01-28T02:39:44;97705.78;;;1.11;71.05
32251;BME280;41295;48.518;9.206;2023-01-28T02:41:51;97704.94;;;1.11;71.54
32251;BME280;41295;48.518;9.206;2023-01-28T02:43:56;97705.78;;;1.08;71.87
32251;BME280;41295;48.518;9.206;2023-01-28T02:46:02;97704.06;;;1.08;71.95
32251;BME280;41295;48.518;9.206;2023-01-28T02:48:27;97703.22;;;1.08;71.96
32251;BME280;41295;48.518;9.206;2023-01-28T02:50:37;97702.31;;;1.06;72.05
32251;BME280;41295;48.518;9.206;2023-01-28T02:52:58;97695.47;;;1.03;72.27
32251;BME280;41295;48.518;9.206;2023-01-28T02:55:29;97708.31;;;1.05;72.17
32251;BME280;41295;48.518;9.206;2023-01-28T02:57:37;97702.34;;;1.07;71.71
32251;BME280;41295;48.518;9.206;2023-01-28T02:59:50;97701.50;;;1.07;72.09
32251;BME280;41295;48.518;9.206;2023-01-28T03:01:55;97701.50;;;1.05;72.34
32251;BME280;41295;48.518;9.206;2023-01-28T03:04:04;97698.06;;;1.05;72.28
32251;BME280;41295;48.518;9.206;2023-01-28T03:06:11;97700.56;;;1.00;72.03
32251;BME280;41295;48.518;9.206;2023-01-28T03:08:16;97699.72;;;1.00;72.47
32251;BME280;41295;48.518;9.206;2023-01-28T03:10:36;97704.00;;;1.02;72.58
32251;BME280;41295;48.518;9.206;2023-01-28T03:12:41;97709.19;;;1.05;72.83
32251;BME280;41295;48.518;9.206;2023-01-28T03:15:06;97712.59;;;1.01;73.03
32251;BME280;41295;48.518;9.206;2023-01-28T03:17:32;97713.44;;;1.02;73.22
32251;BME280;41295;48.518;9.206;2023-01-28T03:19:55;97702.31;;;1.01;72.83
32251;BME280;41295;48.518;9.206;2023-01-28T03:22:15;97709.13;;;1.01;72.77
32251;BME280;41295;48.518;9.206;2023-01-28T03:24:40;97704.00;;;1.01;72.99
32251;BME280;41295;48.518;9.206;2023-01-28T03:27:05;97704.84;;;0.98;72.67
32251;BME280;41295;48.518;9.206;2023-01-28T03:29:29;97700.56;;;1.00;73.06
32251;BME280;41295;48.518;9.206;2023-01-28T03:31:53;97704.00;;;0.99;72.64
32251;BME280;41295;48.518;9.206;2023-01-28T03:34:14;97705.75;;;1.02;73.04
32251;BME280;41295;48.518;9.206;2023-01-28T03:36:34;97708.31;;;1.05;72.44
32251;BME280;41295;48.518;9.206;2023-01-28T03:38:50;97715.16;;;1.03;72.99
32251;BME280;41295;48.518;9.206;2023-01-28T03:40:55;97710.84;;;1.00;72.65
32251;BME280;41295;48.518;9.206;2023-01-28T03:42:58;97706.56;;;1.01;72.92
32251;BME280;41295;48.518;9.206;2023-01-28T03:45:01;97717.66;;;0.96;73.28
32251;BME280;41295;48.518;9.206;2023-01-28T03:47:06;97717.69;;;0.98;72.49
32251;BME280;41295;48.518;9.206;2023-01-28T03:49:09;97717.72;;;1.01;72.49
32251;BME280;41295;48.518;9.206;2023-01-28T03:51:11;97717.72;;;1.03;73.24
32251;BME280;41295;48.518;9.206;2023-01-28T03:53:14;97728.00;;;1.04;72.53
32251;BME280;41295;48.518;9.206;2023-01-28T03:55:17;97736.59;;;1.05;73.07
32251;BME280;41295;48.518;9.206;2023-01-28T03:57:22;97722.88;;;1.06;72.98
32251;BME280;41295;48.518;9.206;2023-01-28T03:59:25;97722.88;;;1.06;73.32
32251;BME280;41295;48.518;9.206;2023-01-28T04:01:28;97733.16;;;1.06;72.47
32251;BME280;41295;48.518;9.206;2023-01-28T04:03:32;97733.16;;;1.06;72.89
32251;BME280;41295;48.518;9.206;2023-01-28T04:05:34;97730.56;;;1.04;72.69
32251;BME280;41295;48.518;9.206;2023-01-28T04:07:37;97724.56;;;1.04;73.64
32251;BME280;41295;48.518;9.206;2023-01-28T04:09:40;97730.59;;;1.06;73.18
32251;BME280;41295;48.518;9.206;2023-01-28T04:11:43;97727.19;;;1.05;73.12
32251;BME280;41295;48.518;9.206;2023-01-28T04:13:47;97726.31;;;1.03;72.90
32251;BME280;41295;48.518;9.206;2023-01-28T04:15:52;97718.59;;;1.06;72.61
32251;BME280;41295;48.518;9.206;2023-01-28T04:17:55;97722.91;;;1.09;72.70
32251;BME280;41295;48.518;9.206;2023-01-28T04:19:58;97729.78;;;1.10;73.15
32251;BME280;41295;48.518;9.206;2023-01-28T04:22:05;97727.19;;;1.07;72.98
32251;BME280;41295;48.518;9.206;2023-01-28T04:24:08;97730.56;;;1.04;73.09
32251;BME280;41295;48.518;9.206;2023-01-28T04:26:11;97733.16;;;1.07;73.25
32251;BME280;41295;48.518;9.206;2023-01-28T04:28:13;97737.47;;;1.07;73.23
32251;BME280;41295;48.518;9.206;2023-01-28T04:30:16;97744.28;;;1.05;73.52
32251;BME280;41295;48.518;9.206;2023-01-28T04:32:19;97740.88;;;1.09;72.76
32251;BME280;41295;48.518;9.206;2023-01-28T04:34:21;97743.44;;;1.07;72.89
32251;BME280;41295;48.518;9.206;2023-01-28T04:36:25;97743.44;;;1.06;72.62
32251;BME280;41295;48.518;9.206;2023-01-28T04:38:28;97751.13;;;1.07;73.30
32251;BME280;41295;48.518;9.206;2023-01-28T04:40:31;97744.31;;;1.08;72.92
32251;BME280;41295;48.518;9.206;2023-01-28T04:42:33;97746.88;;;1.06;72.97
32251;BME280;41295;48.518;9.206;2023-01-28T04:44:36;97754.56;;;1.03;73.41
32251;BME280;41295;48.518;9.206;2023-01-28T04:46:39;97751.13;;;1.06;73.12
32251;BME280;41295;48.518;9.206;2023-01-28T04:48:43;97758.91;;;1.12;73.41
32251;BME280;41295;48.518;9.206;2023-01-28T04:50:46;97757.16;;;1.08;73.76
32251;BME280;41295;48.518;9.206;2023-01-28T04:52:49;97761.41;;;1.09;73.20
32251;BME280;41295;48.518;9.206;2023-01-28T04:54:52;97760.56;;;1.05;73.08
32251;BME280;41295;48.518;9.206;2023-01-28T04:56:55;97760.53;;;1.04;73.38
32251;BME280;41295;48.518;9.206;2023-01-28T04:58:57;97769.13;;;1.06;73.46
32251;BME280;41295;48.518;9.206;2023-01-28T05:01:00;97776.81;;;1.07;73.70
32251;BME280;41295;48.518;9.206;2023-01-28T05:03:02;97767.41;;;1.05;73.24
32251;BME280;41295;48.518;9.206;2023-01-28T05:05:06;97767.41;;;1.05;73.60
32251;BME280;41295;48.518;9.206;2023-01-28T05:07:09;97764.84;;;1.08;73.42
32251;BME280;41295;48.518;9.206;2023-01-28T05:09:13;97759.72;;;1.06;73.57
32251;BME280;41295;48.518;9.206;2023-01-28T05:11:16;97762.28;;;1.06;73.28
32251;BME280;41295;48.518;9.206;2023-01-28T05:13:18;97765.72;;;1.07;73.36
32251;BME280;41295;48.518;9.206;2023-01-28T05:15:21;97758.84;;;1.06;73.48
32251;BME280;41295;48.518;9.206;2023-01-28T05:17:24;97758.00;;;1.07;73.44
32251;BME280;41295;48.518;9.206;2023-01-28T05:19:26;97763.16;;;1.10;74.13
32251;BME280;41295;48.518;9.206;2023-01-28T05:21:29;97767.41;;;1.08;73.53
32251;BME280;41295;48.518;9.206;2023-01-28T05:23:32;97770.84;;;1.07;73.99
32251;BME280;41295;48.518;9.206;2023-01-28T05:25:35;97775.13;;;1.08;73.56
32251;BME280;41295;48.518;9.206;2023-01-28T05:27:38;97772.56;;;1.11;72.97
32251;BME280;41295;48.518;9.206;2023-01-28T05:29:41;97769.16;;;1.11;73.77
32251;BME280;41295;48.518;9.206;2023-01-28T05:31:43;97769.19;;;1.12;73.34
32251;BME280;41295;48.518;9.206;2023-01-28T05:33:46;97770.06;;;1.14;73.38
32251;BME280;41295;48.518;9.206;2023-01-28T05:35:48;97764.94;;;1.16;73.73
32251;BME280;41295;48.518;9.206;2023-01-28T05:37:51;97765.75;;;1.15;73.78
32251;BME280;41295;48.518;9.206;2023-01-28T05:39:54;97771.75;;;1.12;73.26
32251;BME280;41295;48.518;9.206;2023-01-28T05:41:57;97776.88;;;1.11;73.08
32251;BME280;41295;48.518;9.206;2023-01-28T05:44:00;97775.16;;;1.13;73.56
32251;BME280;41295;48.518;9.206;2023-01-28T05:46:03;97771.75;;;1.12;73.33
32251;BME280;41295;48.518;9.206;2023-01-28T05:48:06;97770.88;;;1.12;73.52
32251;BME280;41295;48.518;9.206;2023-01-28T05:50:12;97774.31;;;1.12;73.86
32251;BME280;41295;48.518;9.206;2023-01-28T05:52:15;97775.16;;;1.13;74.06
32251;BME280;41295;48.518;9.206;2023-01-28T05:54:18;97778.59;;;1.12;74.08
32251;BME280;41295;48.518;9.206;2023-01-28T05:56:20;97779.41;;;1.09;73.93
32251;BME280;41295;48.518;9.206;2023-01-28T05:58:24;97781.97;;;1.07;73.63
32251;BME280;41295;48.518;9.206;2023-01-28T06:00:31;97778.56;;;1.08;73.75
32251;BME280;41295;48.518;9.206;2023-01-28T06:02:33;97785.41;;;1.06;74.11
32251;BME280;41295;48.518;9.206;2023-01-28T06:04:36;97787.13;;;1.09;74.16
32251;BME280;41295;48.518;9.206;2023-01-28T06:06:39;97789.69;;;1.09;73.49
32251;BME280;41295;48.518;9.206;2023-01-28T06:08:42;97791.41;;;1.08;73.80
32251;BME280;41295;48.518;9.206;2023-01-28T06:10:45;97795.69;;;1.10;74.20
32251;BME280;41295;48.518;9.206;2023-01-28T06:12:47;97793.13;;;1.10;73.85
32251;BME280;41295;48.518;9.206;2023-01-28T06:14:51;97797.44;;;1.11;74.07
32251;BME280;41295;48.518;9.206;2023-01-28T06:16:54;97792.31;;;1.12;74.00
32251;BME280;41295;48.518;9.206;2023-01-28T06:18:56;97798.28;;;1.13;74.01
32251;BME280;41295;48.518;9.206;2023-01-28T06:20:59;97797.44;;;1.11;73.65
32251;BME280;41295;48.518;9.206;2023-01-28T06:23:02;97802.56;;;1.12;74.06
32251;BME280;41295;48.518;9.206;2023-01-28T06:25:06;97807.72;;;1.12;74.26
32251;BME280;41295;48.518;9.206;2023-01-28T06:27:08;97807.69;;;1.11;73.80
32251;BME280;41295;48.518;9.206;2023-01-28T06:29:12;97800.84;;;1.11;73.36
32251;BME280;41295;48.518;9.206;2023-01-28T06:31:16;97800.84;;;1.11;73.82
32251;BME280;41295;48.518;9.206;2023-01-28T06:33:20;97803.41;;;1.10;74.22
32251;BME280;41295;48.518;9.206;2023-01-28T06:35:23;97809.41;;;1.12;74.12
32251;BME280;41295;48.518;9.206;2023-01-28T06:37:25;97811.97;;;1.08;74.28
32251;BME280;41295;48.518;9.206;2023-01-28T06:39:28;97817.09;;;1.08;74.38
32251;BME280;41295;48.518;9.206;2023-01-28T06:41:32;97820.53;;;1.11;74.31
32251;BME280;41295;48.518;9.206;2023-01-28T06:43:34;97831.66;;;1.11;73.74
32251;BME280;41295;48.518;9.206;2023-01-28T06:45:37;97828.28;;;1.14;73.50
32251;BME280;41295;48.518;9.206;2023-01-28T06:47:41;97832.53;;;1.13;73.59
32251;BME280;41295;48.518;9.206;2023-01-28T06:50:01;97827.44;;;1.16;73.63
32251;BME280;41295;48.518;9.206;2023-01-28T06:52:04;97836.88;;;1.16;74.14
32251;BME280;41295;48.518;9.206;2023-01-28T06:54:07;97832.59;;;1.18;74.11
32251;BME280;41295;48.518;9.206;2023-01-28T06:56:09;97836.88;;;1.16;73.40
32251;BME280;41295;48.518;9.206;2023-01-28T06:58:12;97837.75;;;1.18;73.82
32251;BME280;41295;48.518;9.206;2023-01-28T07:00:16;97833.44;;;1.17;73.29
32251;BME280;41295;48.518;9.206;2023-01-28T07:02:19;97844.56;;;1.17;74.31
32251;BME280;41295;48.518;9.206;2023-01-28T07:04:23;97840.25;;;1.15;74.45
32251;BME280;41295;48.518;9.206;2023-01-28T07:06:26;97843.72;;;1.17;74.71
32251;BME280;41295;48.518;9.206;2023-01-28T07:08:29;97848.84;;;1.15;74.02
32251;BME280;41295;48.518;9.206;2023-01-28T07:10:31;97848.81;;;1.14;74.08
32251;BME280;41295;48.518;9.206;2023-01-28T07:12:34;97847.13;;;1.14;73.98
32251;BME280;41295;48.518;9.206;2023-01-28T07:14:37;97848.84;;;1.18;74.49
32251;BME280;41295;48.518;9.206;2023-01-28T07:16:39;97850.59;;;1.18;74.29
32251;BME280;41295;48.518;9.206;2023-01-28T07:18:42;97846.28;;;1.18;74.54
32251;BME280;41295;48.518;9.206;2023-01-28T07:20:46;97852.28;;;1.19;74.42
32251;BME280;41295;48.518;9.206;2023-01-28T07:22:48;97855.75;;;1.23;74.06
32251;BME280;41295;48.518;9.206;2023-01-28T07:24:51;97857.47;;;1.22;74.48
32251;BME280;41295;48.518;9.206;2023-01-28T07:26:53;97853.19;;;1.24;74.16
32251;BME280;41295;48.518;9.206;2023-01-28T07:28:56;97857.47;;;1.24;74.27
32251;BME280;41295;48.518;9.206;2023-01-28T07:30:59;97869.47;;;1.23;74.07
32251;BME280;41295;48.518;9.206;2023-01-28T07:33:01;97858.34;;;1.26;74.36
32251;BME280;41295;48.518;9.206;2023-01-28T07:35:05;97868.59;;;1.23;74.18
32251;BME280;41295;48.518;9.206;2023-01-28T07:37:09;97871.19;;;1.23;74.05
32251;BME280;41295;48.518;9.206;2023-01-28T07:39:12;97874.63;;;1.23;74.01
32251;BME280;41295;48.518;9.206;2023-01-28T07:41:14;97873.75;;;1.23;74.32
32251;BME280;41295;48.518;9.206;2023-01-28T07:43:17;97868.59;;;1.23;74.66
32251;BME280;41295;48.518;9.206;2023-01-28T07:45:20;97879.75;;;1.25;74.80
32251;BME280;41295;48.518;9.206;2023-01-28T07:47:22;97875.47;;;1.25;74.62
32251;BME280;41295;48.518;9.206;2023-01-28T07:49:25;97873.75;;;1.24;74.30
32251;BME280;41295;48.518;9.206;2023-01-28T07:51:27;97877.22;;;1.28;74.48
32251;BME280;41295;48.518;9.206;2023-01-28T07:53:31;97878.09;;;1.30;74.76
32251;BME280;41295;48.518;9.206;2023-01-28T07:55:34;97878.03;;;1.24;74.94
32251;BME280;41295;48.518;9.206;2023-01-28T07:57:37;97877.19;;;1.26;74.40
32251;BME280;41295;48.518;9.206;2023-01-28T07:59:39;97871.22;;;1.29;74.07
32251;BME280;41295;48.518;9.206;2023-01-28T08:01:42;97883.16;;;1.25;74.55
32251;BME280;41295;48.518;9.206;2023-01-28T08:03:44;97876.34;;;1.27;74.94
32251;BME280;41295;48.518;9.206;2023-01-28T08:05:49;97882.34;;;1.28;74.76
32251;BME280;41295;48.518;9.206;2023-01-28T08:07:53;97888.38;;;1.28;74.64
32251;BME280;41295;48.518;9.206;2023-01-28T08:09:57;97893.50;;;1.30;74.43
32251;BME280;41295;48.518;9.206;2023-01-28T08:12:00;97890.09;;;1.32;74.82
32251;BME280;41295;48.518;9.206;2023-01-28T08:14:04;97887.53;;;1.32;74.61
32251;BME280;41295;48.518;9.206;2023-01-28T08:16:06;97900.38;;;1.32;74.40
32251;BME280;41295;48.518;9.206;2023-01-28T08:18:10;97900.47;;;1.40;74.40
32251;BME280;41295;48.518;9.206;2023-01-28T08:20:14;97899.66;;;1.46;73.80
32251;BME280;41295;48.518;9.206;2023-01-28T08:22:17;97903.00;;;1.36;74.36
32251;BME280;41295;48.518;9.206;2023-01-28T08:24:20;97902.16;;;1.41;74.32
32251;BME280;41295;48.518;9.206;2023-01-28T08:26:24;97907.38;;;1.44;73.72
32251;BME280;41295;48.518;9.206;2023-01-28T08:28:26;97896.25;;;1.50;73.46
32251;BME280;41295;48.518;9.206;2023-01-28T08:30:29;97898.91;;;1.61;73.88
32251;BME280;41295;48.518;9.206;2023-01-28T08:32:32;97902.25;;;1.51;73.41
32251;BME280;41295;48.518;9.206;2023-01-28T08:34:35;97906.59;;;1.56;73.62
32251;BME280;41295;48.518;9.206;2023-01-28T08:36:37;97904.00;;;1.53;73.82
32251;BME280;41295;48.518;9.206;2023-01-28T08:38:40;97906.59;;;1.53;73.37
32251;BME280;41295;48.518;9.206;2023-01-28T08:40:43;97895.47;;;1.58;73.12
32251;BME280;41295;48.518;9.206;2023-01-28T08:42:48;97900.59;;;1.58;73.89
32251;BME280;41295;48.518;9.206;2023-01-28T08:44:50;97905.78;;;1.61;73.72
32251;BME280;41295;48.518;9.206;2023-01-28T08:46:53;97901.47;;;1.60;73.71
32251;BME280;41295;48.518;9.206;2023-01-28T08:48:55;97901.50;;;1.63;73.29
32251;BME280;41295;48.518;9.206;2023-01-28T08:50:58;97905.81;;;1.62;73.45
32251;BME280;41295;48.518;9.206;2023-01-28T08:53:03;97905.81;;;1.65;73.40
32251;BME280;41295;48.518;9.206;2023-01-28T08:55:06;97909.25;;;1.66;73.09
32251;BME280;41295;48.518;9.206;2023-01-28T08:57:09;97910.09;;;1.63;73.59
32251;BME280;41295;48.518;9.206;2023-01-28T08:59:13;97910.09;;;1.68;73.64
32251;BME280;41295;48.518;9.206;2023-01-28T09:01:16;97913.53;;;1.67;73.82
32251;BME280;41295;48.518;9.206;2023-01-28T09:03:19;97917.88;;;1.70;73.90
32251;BME280;41295;48.518;9.206;2023-01-28T09:05:21;97911.03;;;1.73;73.34
32251;BME280;41295;48.518;9.206;2023-01-28T09:07:24;97912.75;;;1.73;73.86
32251;BME280;41295;48.518;9.206;2023-01-28T09:09:27;97922.16;;;1.75;73.83
32251;BME280;41295;48.518;9.206;2023-01-28T09:11:31;97923.06;;;1.77;73.63
32251;BME280;41295;48.518;9.206;2023-01-28T09:13:34;97921.34;;;1.78;73.54
32251;BME280;41295;48.518;9.206;2023-01-28T09:15:38;97922.25;;;1.82;73.18
32251;BME280;41295;48.518;9.206;2023-01-28T09:17:40;97918.78;;;1.79;73.60
32251;BME280;41295;48.518;9.206;2023-01-28T09:19:43;97924.81;;;1.80;72.81
32251;BME280;41295;48.518;9.206;2023-01-28T09:21:45;97922.25;;;1.85;72.75
32251;BME280;41295;48.518;9.206;2023-01-28T09:23:48;97929.09;;;1.84;72.57
32251;BME280;41295;48.518;9.206;2023-01-28T09:25:58;97930.84;;;1.84;72.96
32251;BME280;41295;48.518;9.206;2023-01-28T09:28:01;97919.69;;;1.86;72.92
32251;BME280;41295;48.518;9.206;2023-01-28T09:30:05;97920.53;;;1.84;73.40
32251;BME280;41295;48.518;9.206;2023-01-28T09:32:09;97917.13;;;1.86;73.05
32251;BME280;41295;48.518;9.206;2023-01-28T09:34:11;97924.81;;;1.85;72.56
32251;BME280;41295;48.518;9.206;2023-01-28T09:36:14;97929.16;;;1.87;73.10
32251;BME280;41295;48.518;9.206;2023-01-28T09:38:17;97932.53;;;1.85;73.29
32251;BME280;41295;48.518;9.206;2023-01-28T09:40:28;97932.56;;;1.86;72.74
32251;BME280;41295;48.518;9.206;2023-01-28T09:42:42;97945.47;;;1.92;73.38
32251;BME280;41295;48.518;9.206;2023-01-28T09:44:58;97942.06;;;1.97;72.29
32251;BME280;41295;48.518;9.206;2023-01-28T09:47:04;97950.63;;;1.92;72.66
32251;BME280;41295;48.518;9.206;2023-01-28T09:49:18;97943.72;;;1.91;73.21
32251;BME280;41295;48.518;9.206;2023-01-28T09:51:29;97942.03;;;1.92;72.73
32251;BME280;41295;48.518;9.206;2023-01-28T09:53:37;97945.47;;;1.91;72.85
32251;BME280;41295;48.518;9.206;2023-01-28T09:55:43;97951.50;;;1.95;72.99
32251;BME280;41295;48.518;9.206;2023-01-28T09:57:49;97957.50;;;1.97;72.41
32251;BME280;41295;48.518;9.206;2023-01-28T09:59:53;97948.03;;;1.92;73.20
32251;BME280;41295;48.518;9.206;2023-01-28T10:02:01;97950.63;;;1.96;72.61
32251;BME280;41295;48.518;9.206;2023-01-28T10:04:17;97950.66;;;1.97;72.20
32251;BME280;41295;48.518;9.206;2023-01-28T10:06:27;97954.09;;;1.99;72.70
32251;BME280;41295;48.518;9.206;2023-01-28T10:08:48;97955.00;;;2.08;72.22
32251;BME280;41295;48.518;9.206;2023-01-28T10:11:02;97954.97;;;2.03;72.55
32251;BME280;41295;48.518;9.206;2023-01-28T10:13:27;97955.84;;;2.05;73.09
32251;BME280;41295;48.518;9.206;2023-01-28T10:15:53;97952.44;;;2.06;72.55
32251;BME280;41295;48.518;9.206;2023-01-28T10:18:00;97954.19;;;2.15;72.62
32251;BME280;41295;48.518;9.206;2023-01-28T10:20:23;97949.06;;;2.15;72.09
32251;BME280;41295;48.518;9.206;2023-01-28T10:22:30;97944.84;;;2.23;71.76
32251;BME280;41295;48.518;9.206;2023-01-28T10:24:35;97942.28;;;2.30;71.64
32251;BME280;41295;48.518;9.206;2023-01-28T10:26:39;97945.75;;;2.33;71.61
32251;BME280;41295;48.518;9.206;2023-01-28T10:28:51;97942.31;;;2.31;71.70
32251;BME280;41295;48.518;9.206;2023-01-28T10:30:55;97935.47;;;2.33;71.61
32251;BME280;41295;48.518;9.206;2023-01-28T10:33:02;97938.03;;;2.38;71.45
32251;BME280;41295;48.518;9.206;2023-01-28T10:35:06;97932.88;;;2.35;71.33
32251;BME280;41295;48.518;9.206;2023-01-28T10:37:11;97930.31;;;2.39;70.99
32251;BME280;41295;48.518;9.206;2023-01-28T10:39:16;97930.38;;;2.47;70.38
32251;BME280;41295;48.518;9.206;2023-01-28T10:41:21;97935.53;;;2.43;70.32
32251;BME280;41295;48.518;9.206;2023-01-28T10:43:29;97926.94;;;2.44;70.58
32251;BME280;41295;48.518;9.206;2023-01-28T10:45:36;97928.69;;;2.51;70.07
32251;BME280;41295;48.518;9.206;2023-01-28T10:47:44;97929.56;;;2.51;69.49
32251;BME280;41295;48.518;9.206;2023-01-28T10:49:52;97926.97;;;2.50;70.25
32251;BME280;41295;48.518;9.206;2023-01-28T10:51:56;97927.00;;;2.53;69.63
32251;BME280;41295;48.518;9.206;2023-01-28T10:54:00;97923.63;;;2.68;68.57
32251;BME280;41295;48.518;9.206;2023-01-28T10:56:05;97915.81;;;2.56;69.01
32251;BME280;41295;48.518;9.206;2023-01-28T10:58:14;97926.13;;;2.56;69.18
32251;BME280;41295;48.518;9.206;2023-01-28T11:00:24;97921.00;;;2.59;69.19
32251;BME280;41295;48.518;9.206;2023-01-28T11:02:30;97916.75;;;2.62;68.95
32251;BME280;41295;48.518;9.206;2023-01-28T11:04:34;97921.91;;;2.62;68.67
32251;BME280;41295;48.518;9.206;2023-01-28T11:06:38;97921.91;;;2.66;68.93
32251;BME280;41295;48.518;9.206;2023-01-28T11:08:43;97917.63;;;2.68;68.85
32251;BME280;41295;48.518;9.206;2023-01-28T11:10:47;97911.59;;;2.72;68.30
32251;BME280;41295;48.518;9.206;2023-01-28T11:12:54;97915.06;;;2.77;67.68
32251;BME280;41295;48.518;9.206;2023-01-28T11:14:58;97919.38;;;2.80;67.90